Aviation Digital Data Service (ADDS)

Output produced by METARs form (0338 UTC 29 June 2016)
found at http://www.aviationweather.gov/adds/metars/
 
KCXY 290256Z AUTO 23004KT 10SM FEW016 FEW029 22/19 A2991 RMK AO2 SLP128 T02170189 53015
KCXY 290156Z AUTO 00000KT 10SM FEW075 21/19 A2988 RMK AO2 SLP117 T02110189
KCXY 290056Z 00000KT 10SM CLR 23/19 A2987 RMK AO2 SLP115 T02280189
KCXY 282356Z 18003KT 10SM SCT050 BKN070 BKN085 24/19 A2986 RMK AO2 SLP111 60071 T02440189 10306 20206 53003
KCXY 282256Z 16003KT 10SM BKN065 BKN090 24/18 A2985 RMK AO2 LTG DSNT N AND NE SLP107 T02440183
KCXY 282156Z 13012KT 10SM FEW110 24/18 A2984 RMK AO2 LTG DSNT ALQDS SLP105 T02440183
KCXY 282056Z 14014KT 10SM FEW110 24/19 A2986 RMK AO2 PK WND 04041/2002 WSHFT 2030 LTG DSNT E-S RAE29 TSE54 SLP109 P0023 60071 T02390189 56007
KCXY 282017Z 07018G27KT 9SM -TSRA SCT009 BKN055 OVC090 22/18 A2986 RMK AO2 PK WND 04041/2002 WSHFT 1954 LTG DSNT ALQDS P0023 T02170183
KCXY 282010Z 05012G41KT 2SM R08/2600VP6000FT -TSRA BKN009 BKN032 OVC075 21/18 A2986 RMK AO2 PK WND 04041/2002 WSHFT 1954 LTG DSNT ALQDS P0023 T02110178
KCXY 282005Z 04022G41KT 1/2SM R08/1400VP6000FT +TSRA BKN009 BKN032 OVC042 21/17 A2985 RMK AO2 PK WND 04041/2002 LTG DSNT ALQDS P0022 T02060172
KCXY 281956Z 35025G34KT 1/4SM R08/1400VP6000FT +TSRA SCT009 BKN032 OVC110 22/19 A2986 RMK AO2 PK WND 01034/1956 LTG DSNT ALQDS RAB40 TSB29 SLP110 P0048 T02220194
KCXY 281951Z 31020G30KT 3/4SM R08/1400VP6000FT +TSRA FEW009 SCT032 BKN042 23/20 A2987 RMK AO2 PK WND 32030/1951 LTG DSNT ALQDS RAB40 TSB29 PRESRR P0021
KCXY 281935Z 14014KT 10SM TS FEW042 SCT110 29/19 A2981 RMK AO2 LTG DSNT SW-N TSB29 T02940189
KCXY 281909Z 13013G19KT 10SM VCTS FEW035 30/20 A2983 RMK AO2 LTG DSNT W AND NW T03000200
KCXY 281856Z 14014KT 8SM FEW034 31/21 A2982 RMK AO2 LTG DSNT W AND NW PRESFR SLP097 T03060211
KCXY 281756Z 10009KT 7SM CLR 28/22 A2988 RMK AO2 SLP115 T02830217 10289 20228 58020
KCXY 281256Z 10003KT 5SM HZ OVC010 23/20 A2995 RMK AO2 SLP139 T02280200
KCXY 281156Z 16003KT 8SM OVC011 23/19 A2994 RMK AO2 SLP136 70012 T02280194 10233 20222 51005
KCXY 281056Z 14005KT 8SM OVC011 22/19 A2994 RMK AO2 SLP136 T02220194
KCXY 280956Z AUTO 14004KT 8SM OVC012 22/19 A2993 RMK AO2 SLP133 T02220194
KCXY 280856Z AUTO 14004KT 8SM OVC014 22/19 A2992 RMK AO2 SLP131 T02220194 56008
KCXY 280825Z AUTO 13005KT 8SM OVC014 23/19 A2992 RMK AO2 T02280194
KCXY 280756Z AUTO 14003KT 10SM OVC016 22/19 A2993 RMK AO2 SLP132 T02220194
KCXY 280742Z AUTO 16003KT 10SM OVC015 22/19 A2992 RMK AO2 T02220194
KCXY 280731Z AUTO 16004KT 10SM OVC014 22/19 A2993 RMK AO2 T02220194
KCXY 280656Z AUTO 16004KT 10SM OVC015 23/19 A2993 RMK AO2 SLP134 T02280194
KCXY 280556Z AUTO VRB03KT 10SM BKN019 OVC027 23/19 A2995 RMK AO2 SLP139 T02330194 10261 20233 56007
KCXY 280513Z AUTO 13004KT 10SM BKN018 BKN033 23/19 A2995 RMK AO2 LTG DSNT NE T02330194
KCXY 280456Z AUTO 10004KT 10SM SCT033 23/19 A2995 RMK AO2 SLP141 T02330194 402830183
KCXY 280356Z AUTO 13005KT 10SM SCT041 24/19 A2996 RMK AO2 LTG DSNT N SLP143 T02390194
KCXY 280256Z AUTO VRB06KT 10SM OVC040 24/20 A2997 RMK AO2 LTG DSNT N SLP146 T02390200 50004
KCXY 280156Z AUTO 14006KT 10SM BKN043 24/21 A2997 RMK AO2 LTG DSNT NW SLP147 T02440206
KCXY 280056Z AUTO 13008KT 10SM FEW037 25/21 A2996 RMK AO2 SLP142 T02500206
KCXY 272356Z 18005KT 10SM CLR 26/21 A2996 RMK AO2 SLP143 60001 T02610206 10272 20250 55001
KCXY 272256Z 18006KT 10SM SCT080 27/21 A2996 RMK AO2 SLP142 T02670206
KCXY 272156Z 18006KT 10SM FEW025 SCT090 27/21 A2996 RMK AO2 SLP143 T02670206
KCXY 272056Z 00000KT 10SM BKN049 BKN060 BKN075 26/21 A2996 RMK AO2 SLP145 60001 T02610206 56017
KCXY 271956Z 20008KT 10SM BKN045 OVC080 26/20 A2997 RMK AO2 SLP149 T02610200
KCXY 271856Z 21006KT 10SM BKN048 27/21 A2999 RMK AO2 RAB18E54 SLP153 P0001 T02670206
KCXY 271756Z 22005KT 10SM OVC048 26/20 A3001 RMK AO2 RAE13 SLP162 P0000 60011 T02610200 10283 20217 58007
KCXY 271704Z 17004KT 7SM -RA FEW037 BKN047 OVC055 24/19 A3002 RMK AO2 P0000 T02440194
KCXY 271656Z 00000KT 2SM R08/6000VP6000FT +RA BKN046 OVC055 24/19 A3002 RMK AO2 VIS 3/4V5 RAB33 SLP166 P0011 T02440189
KCXY 271652Z 00000KT 1SM R08/4500VP6000FT +RA FEW034 BKN048 OVC055 24/19 A3003 RMK AO2 RAB33 P0010
KCXY 271644Z 22004KT 1 3/4SM R08/4500VP6000FT +RA FEW035 OVC048 26/18 A3003 RMK AO2 RAB33 P0006 T02560183
KCXY 271556Z 22007KT 10SM CLR 28/18 A3003 RMK AO2 SLP168 T02830178